sensor_id;sensor_type;location;lat;lon;timestamp;temperature;humidity
12520;DHT22;6325;49.540;8.364;2023-05-10T00:01:31;15.60;99.90
12520;DHT22;6325;49.540;8.364;2023-05-10T00:03:58;14.80;99.90
12520;DHT22;6325;49.540;8.364;2023-05-10T00:06:25;15.00;99.90
12520;DHT22;6325;49.540;8.364;2023-05-10T00:08:53;15.00;99.90
12520;DHT22;6325;49.540;8.364;2023-05-10T00:11:20;15.00;99.90
12520;DHT22;6325;49.540;8.364;2023-05-10T00:13:47;15.00;99.90
12520;DHT22;6325;49.540;8.364;2023-05-10T00:16:15;14.70;99.90
12520;DHT22;6325;49.540;8.364;2023-05-10T00:18:42;14.80;99.90
12520;DHT22;6325;49.540;8.364;2023-05-10T00:21:08;15.50;99.90
12520;DHT22;6325;49.540;8.364;2023-05-10T00:23:35;14.90;99.90
12520;DHT22;6325;49.540;8.364;2023-05-10T00:26:02;14.80;99.90
12520;DHT22;6325;49.540;8.364;2023-05-10T00:28:29;14.80;99.90
12520;DHT22;6325;49.540;8.364;2023-05-10T00:30:56;15.30;99.90
12520;DHT22;6325;49.540;8.364;2023-05-10T00:33:24;14.50;99.90
12520;DHT22;6325;49.540;8.364;2023-05-10T00:35:51;15.00;99.90
12520;DHT22;6325;49.540;8.364;2023-05-10T00:38:18;14.70;99.90
12520;DHT22;6325;49.540;8.364;2023-05-10T00:40:44;14.40;99.90
12520;DHT22;6325;49.540;8.364;2023-05-10T00:43:11;14.50;99.90
12520;DHT22;6325;49.540;8.364;2023-05-10T00:45:40;14.80;99.90
12520;DHT22;6325;49.540;8.364;2023-05-10T00:48:07;14.80;99.90
12520;DHT22;6325;49.540;8.364;2023-05-10T00:50:35;14.80;99.90
12520;DHT22;6325;49.540;8.364;2023-05-10T00:53:02;14.70;99.90
12520;DHT22;6325;49.540;8.364;2023-05-10T00:55:30;14.80;99.90
12520;DHT22;6325;49.540;8.364;2023-05-10T00:57:57;14.70;99.90
12520;DHT22;6325;49.540;8.364;2023-05-10T01:00:24;14.70;99.90
12520;DHT22;6325;49.540;8.364;2023-05-10T01:02:52;14.60;99.90
12520;DHT22;6325;49.540;8.364;2023-05-10T01:05:19;14.40;99.90
12520;DHT22;6325;49.540;8.364;2023-05-10T01:07:48;14.80;99.90
12520;DHT22;6325;49.540;8.364;2023-05-10T01:10:15;14.30;99.90
12520;DHT22;6325;49.540;8.364;2023-05-10T01:12:44;14.70;99.90
12520;DHT22;6325;49.540;8.364;2023-05-10T01:15:12;14.70;99.90
12520;DHT22;6325;49.540;8.364;2023-05-10T01:17:42;14.70;99.90
12520;DHT22;6325;49.540;8.364;2023-05-10T01:20:11;14.80;99.90
12520;DHT22;6325;49.540;8.364;2023-05-10T01:22:57;14.60;99.90
12520;DHT22;6325;49.540;8.364;2023-05-10T01:26:14;14.70;99.90
12520;DHT22;6325;49.540;8.364;2023-05-10T01:29:04;14.60;99.90
12520;DHT22;6325;49.540;8.364;2023-05-10T01:32:03;15.00;99.90
12520;DHT22;6325;49.540;8.364;2023-05-10T01:34:35;14.60;99.90
12520;DHT22;6325;49.540;8.364;2023-05-10T01:37:07;14.90;99.90
12520;DHT22;6325;49.540;8.364;2023-05-10T01:39:43;14.20;99.90
12520;DHT22;6325;49.540;8.364;2023-05-10T01:42:16;15.00;99.90
12520;DHT22;6325;49.540;8.364;2023-05-10T01:44:49;14.60;99.90
12520;DHT22;6325;49.540;8.364;2023-05-10T01:47:26;14.60;99.90
12520;DHT22;6325;49.540;8.364;2023-05-10T01:49:55;14.60;99.90
12520;DHT22;6325;49.540;8.364;2023-05-10T01:52:33;14.60;99.90
12520;DHT22;6325;49.540;8.364;2023-05-10T01:55:06;14.60;99.90
12520;DHT22;6325;49.540;8.364;2023-05-10T01:57:35;14.90;99.90
12520;DHT22;6325;49.540;8.364;2023-05-10T02:00:06;14.60;99.90
12520;DHT22;6325;49.540;8.364;2023-05-10T02:02:37;14.60;99.90
12520;DHT22;6325;49.540;8.364;2023-05-10T02:05:06;14.50;99.90
12520;DHT22;6325;49.540;8.364;2023-05-10T02:07:35;14.60;99.90
12520;DHT22;6325;49.540;8.364;2023-05-10T02:10:03;14.50;99.90
12520;DHT22;6325;49.540;8.364;2023-05-10T02:12:31;14.50;99.90
12520;DHT22;6325;49.540;8.364;2023-05-10T02:14:59;14.60;99.90
12520;DHT22;6325;49.540;8.364;2023-05-10T02:17:29;14.60;99.90
12520;DHT22;6325;49.540;8.364;2023-05-10T02:19:58;14.50;99.90
12520;DHT22;6325;49.540;8.364;2023-05-10T02:22:26;14.60;99.90
12520;DHT22;6325;49.540;8.364;2023-05-10T02:24:55;14.60;99.90
12520;DHT22;6325;49.540;8.364;2023-05-10T02:27:23;14.20;99.90
12520;DHT22;6325;49.540;8.364;2023-05-10T02:29:51;15.00;99.90
12520;DHT22;6325;49.540;8.364;2023-05-10T02:32:19;14.50;99.90
12520;DHT22;6325;49.540;8.364;2023-05-10T02:34:48;14.80;99.90
12520;DHT22;6325;49.540;8.364;2023-05-10T02:37:19;14.80;99.90
12520;DHT22;6325;49.540;8.364;2023-05-10T02:39:47;14.50;99.90
12520;DHT22;6325;49.540;8.364;2023-05-10T02:42:16;14.70;99.90
12520;DHT22;6325;49.540;8.364;2023-05-10T02:44:45;14.80;99.90
12520;DHT22;6325;49.540;8.364;2023-05-10T02:47:14;14.30;99.90
12520;DHT22;6325;49.540;8.364;2023-05-10T02:49:41;14.60;99.90
12520;DHT22;6325;49.540;8.364;2023-05-10T02:52:11;14.60;99.90
12520;DHT22;6325;49.540;8.364;2023-05-10T02:54:45;14.50;99.90
12520;DHT22;6325;49.540;8.364;2023-05-10T02:57:16;14.40;99.90
12520;DHT22;6325;49.540;8.364;2023-05-10T02:59:44;13.90;99.90
12520;DHT22;6325;49.540;8.364;2023-05-10T03:02:12;14.50;99.90
12520;DHT22;6325;49.540;8.364;2023-05-10T03:04:39;15.00;99.90
12520;DHT22;6325;49.540;8.364;2023-05-10T03:07:06;14.70;99.90
12520;DHT22;6325;49.540;8.364;2023-05-10T03:09:33;14.40;99.90
12520;DHT22;6325;49.540;8.364;2023-05-10T03:12:07;14.60;99.90
12520;DHT22;6325;49.540;8.364;2023-05-10T03:14:45;14.40;99.90
12520;DHT22;6325;49.540;8.364;2023-05-10T03:17:22;13.90;99.90
12520;DHT22;6325;49.540;8.364;2023-05-10T03:19:53;14.40;99.90
12520;DHT22;6325;49.540;8.364;2023-05-10T03:22:24;14.40;99.90
12520;DHT22;6325;49.540;8.364;2023-05-10T03:24:53;14.50;99.90
12520;DHT22;6325;49.540;8.364;2023-05-10T03:27:26;14.80;99.90
12520;DHT22;6325;49.540;8.364;2023-05-10T03:29:55;14.90;99.90
12520;DHT22;6325;49.540;8.364;2023-05-10T03:32:22;14.40;99.90
12520;DHT22;6325;49.540;8.364;2023-05-10T03:34:49;14.50;99.90
12520;DHT22;6325;49.540;8.364;2023-05-10T03:37:16;14.00;99.90
12520;DHT22;6325;49.540;8.364;2023-05-10T03:39:43;14.40;99.90
12520;DHT22;6325;49.540;8.364;2023-05-10T03:42:10;14.40;99.90
12520;DHT22;6325;49.540;8.364;2023-05-10T03:44:40;14.50;99.90
12520;DHT22;6325;49.540;8.364;2023-05-10T03:47:06;14.60;99.90
12520;DHT22;6325;49.540;8.364;2023-05-10T03:49:33;13.80;99.90
12520;DHT22;6325;49.540;8.364;2023-05-10T03:52:01;14.30;99.90
12520;DHT22;6325;49.540;8.364;2023-05-10T03:54:28;13.60;99.90
12520;DHT22;6325;49.540;8.364;2023-05-10T03:56:56;14.30;99.90
12520;DHT22;6325;49.540;8.364;2023-05-10T03:59:23;14.30;99.90
12520;DHT22;6325;49.540;8.364;2023-05-10T04:01:51;14.20;99.90
12520;DHT22;6325;49.540;8.364;2023-05-10T04:04:18;14.30;99.90
12520;DHT22;6325;49.540;8.364;2023-05-10T04:06:46;14.40;99.90
12520;DHT22;6325;49.540;8.364;2023-05-10T04:09:13;14.20;99.90
12520;DHT22;6325;49.540;8.364;2023-05-10T04:11:40;14.20;99.90
12520;DHT22;6325;49.540;8.364;2023-05-10T04:14:07;14.10;99.90
12520;DHT22;6325;49.540;8.364;2023-05-10T04:16:34;14.10;99.90
12520;DHT22;6325;49.540;8.364;2023-05-10T04:19:03;14.10;99.90
12520;DHT22;6325;49.540;8.364;2023-05-10T04:21:30;14.10;99.90
12520;DHT22;6325;49.540;8.364;2023-05-10T04:23:57;14.10;99.90
12520;DHT22;6325;49.540;8.364;2023-05-10T04:26:23;14.10;99.90
12520;DHT22;6325;49.540;8.364;2023-05-10T04:28:51;14.00;99.90
12520;DHT22;6325;49.540;8.364;2023-05-10T04:31:17;14.20;99.90
12520;DHT22;6325;49.540;8.364;2023-05-10T04:33:44;13.40;99.90
12520;DHT22;6325;49.540;8.364;2023-05-10T04:36:12;14.00;99.90
12520;DHT22;6325;49.540;8.364;2023-05-10T04:38:39;13.90;99.90
12520;DHT22;6325;49.540;8.364;2023-05-10T04:41:06;14.40;99.90
12520;DHT22;6325;49.540;8.364;2023-05-10T04:43:34;13.90;99.90
12520;DHT22;6325;49.540;8.364;2023-05-10T04:46:01;13.80;99.90
12520;DHT22;6325;49.540;8.364;2023-05-10T04:48:28;13.90;99.90
12520;DHT22;6325;49.540;8.364;2023-05-10T04:50:55;13.90;99.90
12520;DHT22;6325;49.540;8.364;2023-05-10T04:53:23;13.80;99.90
12520;DHT22;6325;49.540;8.364;2023-05-10T04:55:50;13.50;99.90
12520;DHT22;6325;49.540;8.364;2023-05-10T04:58:17;13.90;99.90
12520;DHT22;6325;49.540;8.364;2023-05-10T05:00:43;13.90;99.90
12520;DHT22;6325;49.540;8.364;2023-05-10T05:03:11;13.90;99.90
12520;DHT22;6325;49.540;8.364;2023-05-10T05:05:38;14.20;99.90
12520;DHT22;6325;49.540;8.364;2023-05-10T05:08:05;13.90;99.90
12520;DHT22;6325;49.540;8.364;2023-05-10T05:10:33;13.40;99.90
12520;DHT22;6325;49.540;8.364;2023-05-10T05:13:00;13.90;99.90
12520;DHT22;6325;49.540;8.364;2023-05-10T05:15:27;14.00;99.90
12520;DHT22;6325;49.540;8.364;2023-05-10T05:17:54;14.10;99.90
12520;DHT22;6325;49.540;8.364;2023-05-10T05:20:20;14.10;99.90
12520;DHT22;6325;49.540;8.364;2023-05-10T05:22:47;13.90;99.90
12520;DHT22;6325;49.540;8.364;2023-05-10T05:25:14;14.00;99.90
12520;DHT22;6325;49.540;8.364;2023-05-10T05:27:43;14.10;99.90
12520;DHT22;6325;49.540;8.364;2023-05-10T05:30:10;14.10;99.90
12520;DHT22;6325;49.540;8.364;2023-05-10T05:32:39;14.10;99.90
12520;DHT22;6325;49.540;8.364;2023-05-10T05:35:06;14.20;99.90
12520;DHT22;6325;49.540;8.364;2023-05-10T05:37:33;14.80;99.90
12520;DHT22;6325;49.540;8.364;2023-05-10T05:40:00;14.30;99.90
12520;DHT22;6325;49.540;8.364;2023-05-10T05:42:28;13.90;99.90
12520;DHT22;6325;49.540;8.364;2023-05-10T05:44:56;14.40;99.90
12520;DHT22;6325;49.540;8.364;2023-05-10T05:47:23;14.40;99.90
12520;DHT22;6325;49.540;8.364;2023-05-10T05:49:50;14.40;99.90
12520;DHT22;6325;49.540;8.364;2023-05-10T05:52:17;14.20;99.90
12520;DHT22;6325;49.540;8.364;2023-05-10T05:54:44;14.60;99.90
12520;DHT22;6325;49.540;8.364;2023-05-10T05:57:10;15.20;99.90
12520;DHT22;6325;49.540;8.364;2023-05-10T05:59:37;14.70;99.90
12520;DHT22;6325;49.540;8.364;2023-05-10T06:02:08;14.20;99.90
12520;DHT22;6325;49.540;8.364;2023-05-10T06:04:36;15.00;99.90
12520;DHT22;6325;49.540;8.364;2023-05-10T06:07:03;14.60;99.90
12520;DHT22;6325;49.540;8.364;2023-05-10T06:09:30;14.90;99.90
12520;DHT22;6325;49.540;8.364;2023-05-10T06:11:57;15.30;99.90
12520;DHT22;6325;49.540;8.364;2023-05-10T06:14:23;15.50;99.90
12520;DHT22;6325;49.540;8.364;2023-05-10T06:16:50;14.80;99.90
12520;DHT22;6325;49.540;8.364;2023-05-10T06:19:19;15.10;99.90
12520;DHT22;6325;49.540;8.364;2023-05-10T06:21:45;15.30;99.90
12520;DHT22;6325;49.540;8.364;2023-05-10T06:24:12;15.40;99.90
12520;DHT22;6325;49.540;8.364;2023-05-10T06:26:39;15.20;99.90
12520;DHT22;6325;49.540;8.364;2023-05-10T06:29:06;14.70;99.90
12520;DHT22;6325;49.540;8.364;2023-05-10T06:31:32;14.90;99.90
12520;DHT22;6325;49.540;8.364;2023-05-10T06:33:59;15.10;99.90
12520;DHT22;6325;49.540;8.364;2023-05-10T06:36:27;15.40;99.90
12520;DHT22;6325;49.540;8.364;2023-05-10T06:38:54;15.20;99.90
12520;DHT22;6325;49.540;8.364;2023-05-10T06:41:23;15.80;99.90
12520;DHT22;6325;49.540;8.364;2023-05-10T06:43:49;15.30;99.90
12520;DHT22;6325;49.540;8.364;2023-05-10T06:46:16;15.20;99.90
12520;DHT22;6325;49.540;8.364;2023-05-10T06:48:43;15.80;99.90
12520;DHT22;6325;49.540;8.364;2023-05-10T06:51:10;15.70;99.90
12520;DHT22;6325;49.540;8.364;2023-05-10T06:53:38;16.20;99.90
12520;DHT22;6325;49.540;8.364;2023-05-10T06:56:05;16.20;99.90
12520;DHT22;6325;49.540;8.364;2023-05-10T06:58:32;15.70;99.90
12520;DHT22;6325;49.540;8.364;2023-05-10T07:01:02;15.70;99.90
12520;DHT22;6325;49.540;8.364;2023-05-10T07:03:29;16.20;99.90
12520;DHT22;6325;49.540;8.364;2023-05-10T07:06:00;15.90;99.90
12520;DHT22;6325;49.540;8.364;2023-05-10T07:08:28;15.70;99.90
12520;DHT22;6325;49.540;8.364;2023-05-10T07:11:01;15.80;99.90
12520;DHT22;6325;49.540;8.364;2023-05-10T07:13:29;15.30;99.90
12520;DHT22;6325;49.540;8.364;2023-05-10T07:15:58;15.90;99.90
12520;DHT22;6325;49.540;8.364;2023-05-10T07:18:25;15.90;99.90
12520;DHT22;6325;49.540;8.364;2023-05-10T07:20:52;16.10;99.90
12520;DHT22;6325;49.540;8.364;2023-05-10T07:23:19;16.00;99.90
12520;DHT22;6325;49.540;8.364;2023-05-10T07:25:46;16.20;99.90
12520;DHT22;6325;49.540;8.364;2023-05-10T07:28:15;16.30;99.90
12520;DHT22;6325;49.540;8.364;2023-05-10T07:30:42;16.50;99.90
12520;DHT22;6325;49.540;8.364;2023-05-10T07:33:10;16.50;99.90
12520;DHT22;6325;49.540;8.364;2023-05-10T07:35:37;16.60;99.90
12520;DHT22;6325;49.540;8.364;2023-05-10T07:38:04;16.70;99.90
12520;DHT22;6325;49.540;8.364;2023-05-10T07:40:31;16.50;99.90
12520;DHT22;6325;49.540;8.364;2023-05-10T07:42:58;16.10;99.90
12520;DHT22;6325;49.540;8.364;2023-05-10T07:45:28;16.00;99.90
12520;DHT22;6325;49.540;8.364;2023-05-10T07:47:55;16.30;99.90
12520;DHT22;6325;49.540;8.364;2023-05-10T07:50:22;16.40;99.90
12520;DHT22;6325;49.540;8.364;2023-05-10T07:52:49;16.40;99.90
12520;DHT22;6325;49.540;8.364;2023-05-10T07:55:16;16.60;99.90
12520;DHT22;6325;49.540;8.364;2023-05-10T07:57:44;16.30;99.90
12520;DHT22;6325;49.540;8.364;2023-05-10T08:00:13;15.80;99.90
12520;DHT22;6325;49.540;8.364;2023-05-10T08:02:44;16.30;99.90
12520;DHT22;6325;49.540;8.364;2023-05-10T08:05:11;16.20;99.90
12520;DHT22;6325;49.540;8.364;2023-05-10T08:07:38;17.00;99.90
12520;DHT22;6325;49.540;8.364;2023-05-10T08:10:06;17.20;99.90
12520;DHT22;6325;49.540;8.364;2023-05-10T08:12:33;16.90;99.90
12520;DHT22;6325;49.540;8.364;2023-05-10T08:15:00;17.00;99.90
12520;DHT22;6325;49.540;8.364;2023-05-10T08:17:27;17.20;99.90
12520;DHT22;6325;49.540;8.364;2023-05-10T08:19:55;17.30;99.90
12520;DHT22;6325;49.540;8.364;2023-05-10T08:22:22;17.80;99.90
12520;DHT22;6325;49.540;8.364;2023-05-10T08:24:49;17.50;99.90
12520;DHT22;6325;49.540;8.364;2023-05-10T08:27:15;17.80;99.90
12520;DHT22;6325;49.540;8.364;2023-05-10T08:29:42;17.60;99.90
12520;DHT22;6325;49.540;8.364;2023-05-10T08:32:09;17.60;99.90
12520;DHT22;6325;49.540;8.364;2023-05-10T08:34:36;17.40;99.90
12520;DHT22;6325;49.540;8.364;2023-05-10T08:37:04;17.60;99.90
12520;DHT22;6325;49.540;8.364;2023-05-10T08:39:34;17.60;99.90
12520;DHT22;6325;49.540;8.364;2023-05-10T08:42:03;17.60;99.90
12520;DHT22;6325;49.540;8.364;2023-05-10T08:44:32;17.60;99.90
12520;DHT22;6325;49.540;8.364;2023-05-10T08:46:59;17.40;99.90
12520;DHT22;6325;49.540;8.364;2023-05-10T08:49:32;17.30;99.90
12520;DHT22;6325;49.540;8.364;2023-05-10T08:52:01;17.00;99.90
12520;DHT22;6325;49.540;8.364;2023-05-10T08:54:31;17.00;99.90
12520;DHT22;6325;49.540;8.364;2023-05-10T08:56:58;17.50;99.90
12520;DHT22;6325;49.540;8.364;2023-05-10T08:59:25;17.00;99.90
12520;DHT22;6325;49.540;8.364;2023-05-10T09:01:52;17.50;99.90
12520;DHT22;6325;49.540;8.364;2023-05-10T09:04:21;17.70;99.90
12520;DHT22;6325;49.540;8.364;2023-05-10T09:06:47;17.20;99.90
12520;DHT22;6325;49.540;8.364;2023-05-10T09:09:15;17.50;99.90
12520;DHT22;6325;49.540;8.364;2023-05-10T09:11:44;17.50;99.90
12520;DHT22;6325;49.540;8.364;2023-05-10T09:14:12;17.50;99.90
12520;DHT22;6325;49.540;8.364;2023-05-10T09:16:40;17.50;99.90
12520;DHT22;6325;49.540;8.364;2023-05-10T09:19:07;17.40;99.90
12520;DHT22;6325;49.540;8.364;2023-05-10T09:21:35;17.50;99.90
12520;DHT22;6325;49.540;8.364;2023-05-10T09:24:04;17.20;99.90
12520;DHT22;6325;49.540;8.364;2023-05-10T09:26:31;17.10;99.90
12520;DHT22;6325;49.540;8.364;2023-05-10T09:29:00;18.00;99.90
12520;DHT22;6325;49.540;8.364;2023-05-10T09:31:43;17.50;99.90
12520;DHT22;6325;49.540;8.364;2023-05-10T09:34:10;17.80;99.90
12520;DHT22;6325;49.540;8.364;2023-05-10T09:36:53;17.60;99.90
12520;DHT22;6325;49.540;8.364;2023-05-10T09:39:20;17.60;99.90
12520;DHT22;6325;49.540;8.364;2023-05-10T09:41:47;17.20;99.90
12520;DHT22;6325;49.540;8.364;2023-05-10T09:44:18;17.70;99.90
12520;DHT22;6325;49.540;8.364;2023-05-10T09:46:49;17.70;99.90
12520;DHT22;6325;49.540;8.364;2023-05-10T09:49:18;18.30;99.90
12520;DHT22;6325;49.540;8.364;2023-05-10T09:51:45;18.20;99.90
12520;DHT22;6325;49.540;8.364;2023-05-10T09:54:13;17.80;99.90
12520;DHT22;6325;49.540;8.364;2023-05-10T09:56:40;17.80;99.90
12520;DHT22;6325;49.540;8.364;2023-05-10T09:59:10;17.00;99.90
12520;DHT22;6325;49.540;8.364;2023-05-10T10:01:39;17.40;99.90
12520;DHT22;6325;49.540;8.364;2023-05-10T10:04:07;17.40;99.90
12520;DHT22;6325;49.540;8.364;2023-05-10T10:06:38;17.20;99.90
12520;DHT22;6325;49.540;8.364;2023-05-10T10:09:06;16.50;99.90
12520;DHT22;6325;49.540;8.364;2023-05-10T10:11:34;16.70;99.90
12520;DHT22;6325;49.540;8.364;2023-05-10T10:14:02;16.50;99.90
12520;DHT22;6325;49.540;8.364;2023-05-10T10:16:29;16.70;99.90
12520;DHT22;6325;49.540;8.364;2023-05-10T10:18:58;16.80;99.90
12520;DHT22;6325;49.540;8.364;2023-05-10T10:21:25;16.90;99.90
12520;DHT22;6325;49.540;8.364;2023-05-10T10:23:52;17.60;99.90
12520;DHT22;6325;49.540;8.364;2023-05-10T10:26:19;17.50;99.90
12520;DHT22;6325;49.540;8.364;2023-05-10T10:28:51;17.40;99.90
12520;DHT22;6325;49.540;8.364;2023-05-10T10:31:27;17.50;99.90
12520;DHT22;6325;49.540;8.364;2023-05-10T10:34:06;17.60;99.90
12520;DHT22;6325;49.540;8.364;2023-05-10T10:36:39;18.10;99.90
12520;DHT22;6325;49.540;8.364;2023-05-10T10:39:10;18.00;99.90
12520;DHT22;6325;49.540;8.364;2023-05-10T10:41:38;18.30;99.90
12520;DHT22;6325;49.540;8.364;2023-05-10T10:44:35;18.10;99.90
12520;DHT22;6325;49.540;8.364;2023-05-10T10:47:05;18.40;99.90
12520;DHT22;6325;49.540;8.364;2023-05-10T10:49:42;18.70;99.90
12520;DHT22;6325;49.540;8.364;2023-05-10T10:52:14;18.90;99.90
12520;DHT22;6325;49.540;8.364;2023-05-10T10:54:41;18.40;99.90
12520;DHT22;6325;49.540;8.364;2023-05-10T10:57:13;19.40;99.90
12520;DHT22;6325;49.540;8.364;2023-05-10T10:59:43;19.60;99.90
12520;DHT22;6325;49.540;8.364;2023-05-10T11:02:34;19.30;99.90
12520;DHT22;6325;49.540;8.364;2023-05-10T11:05:33;19.50;99.90
12520;DHT22;6325;49.540;8.364;2023-05-10T11:08:06;19.90;99.90
12520;DHT22;6325;49.540;8.364;2023-05-10T11:10:33;19.50;99.90
12520;DHT22;6325;49.540;8.364;2023-05-10T11:13:01;19.60;99.90
12520;DHT22;6325;49.540;8.364;2023-05-10T11:15:31;19.60;99.90
12520;DHT22;6325;49.540;8.364;2023-05-10T11:17:58;20.50;99.90
12520;DHT22;6325;49.540;8.364;2023-05-10T11:20:28;19.30;99.90
12520;DHT22;6325;49.540;8.364;2023-05-10T11:23:12;19.90;99.90
12520;DHT22;6325;49.540;8.364;2023-05-10T11:25:44;20.00;99.90
12520;DHT22;6325;49.540;8.364;2023-05-10T11:28:12;19.90;99.90
12520;DHT22;6325;49.540;8.364;2023-05-10T11:30:40;19.80;99.90
12520;DHT22;6325;49.540;8.364;2023-05-10T11:33:07;19.50;99.90
12520;DHT22;6325;49.540;8.364;2023-05-10T11:35:39;19.80;99.90
12520;DHT22;6325;49.540;8.364;2023-05-10T11:38:07;19.90;99.90
12520;DHT22;6325;49.540;8.364;2023-05-10T11:40:34;20.00;99.90
12520;DHT22;6325;49.540;8.364;2023-05-10T11:43:02;20.20;99.90
12520;DHT22;6325;49.540;8.364;2023-05-10T11:45:31;20.90;99.90
12520;DHT22;6325;49.540;8.364;2023-05-10T11:47:59;20.10;99.90
12520;DHT22;6325;49.540;8.364;2023-05-10T11:50:26;19.80;99.90
12520;DHT22;6325;49.540;8.364;2023-05-10T11:52:56;20.00;99.90
12520;DHT22;6325;49.540;8.364;2023-05-10T11:55:24;19.90;99.90
12520;DHT22;6325;49.540;8.364;2023-05-10T11:57:54;19.80;99.90
12520;DHT22;6325;49.540;8.364;2023-05-10T12:00:21;20.70;99.90
12520;DHT22;6325;49.540;8.364;2023-05-10T12:02:48;19.50;99.90
12520;DHT22;6325;49.540;8.364;2023-05-10T12:05:16;20.20;99.90
12520;DHT22;6325;49.540;8.364;2023-05-10T12:07:43;19.90;99.90
12520;DHT22;6325;49.540;8.364;2023-05-10T12:10:12;19.90;99.90
12520;DHT22;6325;49.540;8.364;2023-05-10T12:12:40;20.50;99.90
12520;DHT22;6325;49.540;8.364;2023-05-10T12:15:11;19.80;99.90
12520;DHT22;6325;49.540;8.364;2023-05-10T12:17:39;20.40;99.90
12520;DHT22;6325;49.540;8.364;2023-05-10T12:20:17;19.60;99.90
12520;DHT22;6325;49.540;8.364;2023-05-10T12:22:46;20.30;99.90
12520;DHT22;6325;49.540;8.364;2023-05-10T12:25:14;20.00;99.90
12520;DHT22;6325;49.540;8.364;2023-05-10T12:27:48;20.30;99.90
12520;DHT22;6325;49.540;8.364;2023-05-10T12:30:19;20.30;99.90
12520;DHT22;6325;49.540;8.364;2023-05-10T12:32:47;20.40;99.90
12520;DHT22;6325;49.540;8.364;2023-05-10T12:35:14;20.60;99.90
12520;DHT22;6325;49.540;8.364;2023-05-10T12:37:42;20.20;99.90
12520;DHT22;6325;49.540;8.364;2023-05-10T12:40:10;19.80;99.90
12520;DHT22;6325;49.540;8.364;2023-05-10T12:42:39;20.00;99.90
12520;DHT22;6325;49.540;8.364;2023-05-10T12:45:07;19.80;99.90
12520;DHT22;6325;49.540;8.364;2023-05-10T12:47:34;20.30;99.90
12520;DHT22;6325;49.540;8.364;2023-05-10T12:50:02;19.50;99.90
12520;DHT22;6325;49.540;8.364;2023-05-10T12:52:29;19.90;99.90
12520;DHT22;6325;49.540;8.364;2023-05-10T12:54:57;19.40;99.90
12520;DHT22;6325;49.540;8.364;2023-05-10T12:57:24;19.10;99.90
12520;DHT22;6325;49.540;8.364;2023-05-10T12:59:52;19.50;99.90
12520;DHT22;6325;49.540;8.364;2023-05-10T13:02:19;19.60;99.90
12520;DHT22;6325;49.540;8.364;2023-05-10T13:04:47;19.50;99.90
12520;DHT22;6325;49.540;8.364;2023-05-10T13:07:14;19.60;99.90
12520;DHT22;6325;49.540;8.364;2023-05-10T13:09:41;19.70;99.90
12520;DHT22;6325;49.540;8.364;2023-05-10T13:12:07;20.40;99.90
12520;DHT22;6325;49.540;8.364;2023-05-10T13:14:34;19.90;99.90
12520;DHT22;6325;49.540;8.364;2023-05-10T13:17:02;20.30;99.90
12520;DHT22;6325;49.540;8.364;2023-05-10T13:19:29;19.90;99.90
12520;DHT22;6325;49.540;8.364;2023-05-10T13:21:56;19.90;99.90
12520;DHT22;6325;49.540;8.364;2023-05-10T13:24:23;20.50;99.90
12520;DHT22;6325;49.540;8.364;2023-05-10T13:26:50;20.50;99.90
12520;DHT22;6325;49.540;8.364;2023-05-10T13:29:16;20.50;99.90
12520;DHT22;6325;49.540;8.364;2023-05-10T13:31:44;20.90;99.90
12520;DHT22;6325;49.540;8.364;2023-05-10T13:34:12;21.20;99.90
12520;DHT22;6325;49.540;8.364;2023-05-10T13:36:39;21.40;99.90
12520;DHT22;6325;49.540;8.364;2023-05-10T13:39:06;21.10;99.90
12520;DHT22;6325;49.540;8.364;2023-05-10T13:41:33;21.40;99.90
12520;DHT22;6325;49.540;8.364;2023-05-10T13:44:01;21.00;99.90
12520;DHT22;6325;49.540;8.364;2023-05-10T13:46:29;21.10;99.90
12520;DHT22;6325;49.540;8.364;2023-05-10T13:48:56;20.90;99.90
12520;DHT22;6325;49.540;8.364;2023-05-10T13:51:24;20.30;99.90
12520;DHT22;6325;49.540;8.364;2023-05-10T13:53:51;20.40;99.90
12520;DHT22;6325;49.540;8.364;2023-05-10T13:56:18;20.10;99.90
12520;DHT22;6325;49.540;8.364;2023-05-10T13:58:44;21.00;99.90
12520;DHT22;6325;49.540;8.364;2023-05-10T14:01:11;20.90;99.90
12520;DHT22;6325;49.540;8.364;2023-05-10T14:03:38;20.90;99.90
12520;DHT22;6325;49.540;8.364;2023-05-10T14:06:05;20.90;99.90
12520;DHT22;6325;49.540;8.364;2023-05-10T14:08:34;20.80;99.90
12520;DHT22;6325;49.540;8.364;2023-05-10T14:11:01;21.20;99.90
12520;DHT22;6325;49.540;8.364;2023-05-10T14:13:28;20.70;99.90
12520;DHT22;6325;49.540;8.364;2023-05-10T14:15:54;21.30;99.90
12520;DHT22;6325;49.540;8.364;2023-05-10T14:18:21;20.80;99.90
12520;DHT22;6325;49.540;8.364;2023-05-10T14:20:49;21.30;99.90
12520;DHT22;6325;49.540;8.364;2023-05-10T14:23:15;20.80;99.90
12520;DHT22;6325;49.540;8.364;2023-05-10T14:25:44;20.80;99.90
12520;DHT22;6325;49.540;8.364;2023-05-10T14:28:10;20.60;99.90
12520;DHT22;6325;49.540;8.364;2023-05-10T14:30:37;20.90;99.90
12520;DHT22;6325;49.540;8.364;2023-05-10T14:33:04;21.00;99.90
12520;DHT22;6325;49.540;8.364;2023-05-10T14:35:31;20.90;99.90
12520;DHT22;6325;49.540;8.364;2023-05-10T14:37:58;21.20;99.90
12520;DHT22;6325;49.540;8.364;2023-05-10T14:40:25;21.10;99.90
12520;DHT22;6325;49.540;8.364;2023-05-10T14:42:53;21.40;99.90
12520;DHT22;6325;49.540;8.364;2023-05-10T14:45:22;21.30;99.90
12520;DHT22;6325;49.540;8.364;2023-05-10T14:47:49;21.10;99.90
12520;DHT22;6325;49.540;8.364;2023-05-10T14:50:16;21.40;99.90
12520;DHT22;6325;49.540;8.364;2023-05-10T14:52:43;21.20;99.90
12520;DHT22;6325;49.540;8.364;2023-05-10T14:55:10;21.30;99.90
12520;DHT22;6325;49.540;8.364;2023-05-10T14:57:37;21.30;99.90
12520;DHT22;6325;49.540;8.364;2023-05-10T15:00:06;21.00;99.90
12520;DHT22;6325;49.540;8.364;2023-05-10T15:02:33;21.40;99.90
12520;DHT22;6325;49.540;8.364;2023-05-10T15:05:01;21.50;99.90
12520;DHT22;6325;49.540;8.364;2023-05-10T15:07:28;21.10;99.90
12520;DHT22;6325;49.540;8.364;2023-05-10T15:09:56;21.10;99.90
12520;DHT22;6325;49.540;8.364;2023-05-10T15:12:23;21.40;99.90
12520;DHT22;6325;49.540;8.364;2023-05-10T15:14:50;21.60;99.90
12520;DHT22;6325;49.540;8.364;2023-05-10T15:17:18;22.10;99.90
12520;DHT22;6325;49.540;8.364;2023-05-10T15:19:45;22.00;99.80
12520;DHT22;6325;49.540;8.364;2023-05-10T15:22:12;23.30;99.20
12520;DHT22;6325;49.540;8.364;2023-05-10T15:24:38;23.20;97.60
12520;DHT22;6325;49.540;8.364;2023-05-10T15:27:05;23.70;95.60
12520;DHT22;6325;49.540;8.364;2023-05-10T15:29:32;23.40;96.10
12520;DHT22;6325;49.540;8.364;2023-05-10T15:32:01;23.40;95.30
12520;DHT22;6325;49.540;8.364;2023-05-10T15:34:29;23.10;95.80
12520;DHT22;6325;49.540;8.364;2023-05-10T15:36:58;23.20;94.50
12520;DHT22;6325;49.540;8.364;2023-05-10T15:39:24;23.20;95.20
12520;DHT22;6325;49.540;8.364;2023-05-10T15:41:51;22.90;95.50
12520;DHT22;6325;49.540;8.364;2023-05-10T15:44:18;23.30;94.70
12520;DHT22;6325;49.540;8.364;2023-05-10T15:46:45;23.20;93.40
12520;DHT22;6325;49.540;8.364;2023-05-10T15:49:12;22.80;93.00
12520;DHT22;6325;49.540;8.364;2023-05-10T15:51:40;23.10;93.70
12520;DHT22;6325;49.540;8.364;2023-05-10T15:54:09;23.50;92.70